Time;durP1;ratioP1;P1;durP2;ratioP2;P2;SDS_P1;SDS_P2;PMS_P1;PMS_P2;Temp;Humidity;BMP_temperature;BMP_pressure;BME280_temperature;BME280_humidity;BME280_pressure;Samples;Min_cycle;Max_cycle;Signal;HPM_P1;HPM_P2
2022/07/28 00:00:11;;;;;;;14.38;3.80;;;;;;;;;;5054068;28;20064;-66
2022/07/28 00:02:37;;;;;;;;;;;;;;;;;;5054401;28;20445;-66
2022/07/28 00:05:03;;;;;;;13.05;4.25;;;;;;;;;;5053327;28;19967;-66
2022/07/28 00:07:30;;;;;;;9.07;3.72;;;;;;;;;;5053412;28;20095;-67
2022/07/28 00:09:56;;;;;;;11.07;4.35;;;;;;;;;;5052016;28;20483;-66
2022/07/28 00:12:22;;;;;;;10.23;3.90;;;;;;;;;;5053210;28;20106;-67
2022/07/28 00:14:48;;;;;;;11.18;4.28;;;;;;;;;;5053680;28;20059;-67
2022/07/28 00:17:14;;;;;;;12.20;4.13;;;;;;;;;;5053389;28;20098;-66
2022/07/28 00:19:40;;;;;;;12.60;4.57;;;;;;;;;;5035557;28;20103;-66
2022/07/28 00:22:06;;;;;;;10.10;4.03;;;;;;;;;;5036436;28;20041;-67
2022/07/28 00:24:32;;;;;;;10.20;4.15;;;;;;;;;;5053066;28;20049;-66
2022/07/28 00:26:59;;;;;;;;;;;;;;;;;;5035954;28;20052;-67
2022/07/28 00:29:25;;;;;;;11.00;4.03;;;;;;;;;;5053161;28;19927;-67
2022/07/28 00:31:51;;;;;;;15.88;4.75;;;;;;;;;;5052667;28;20507;-67
2022/07/28 00:34:17;;;;;;;12.07;4.65;;;;;;;;;;5035358;28;20439;-67
2022/07/28 00:36:43;;;;;;;10.40;3.75;;;;;;;;;;5053030;28;20107;-67
2022/07/28 00:39:09;;;;;;;11.52;3.60;;;;;;;;;;5053076;28;20049;-67
2022/07/28 00:41:35;;;;;;;11.75;3.97;;;;;;;;;;5053412;28;20037;-67
2022/07/28 00:44:01;;;;;;;11.13;4.22;;;;;;;;;;5053097;28;20136;-67
2022/07/28 00:46:28;;;;;;;10.77;3.90;;;;;;;;;;5053020;28;20103;-67
2022/07/28 00:48:54;;;;;;;10.82;3.75;;;;;;;;;;5053063;28;20120;-67
2022/07/28 00:51:21;;;;;;;12.77;3.97;;;;;;;;;;5053439;28;20052;-67
2022/07/28 00:53:48;;;;;;;13.98;4.40;;;;;;;;;;5052945;28;20053;-67
2022/07/28 00:56:14;;;;;;;;;;;;;;;;;;5053316;28;20465;-67
2022/07/28 00:58:40;;;;;;;11.68;3.90;;;;;;;;;;5053043;28;19924;-67
2022/07/28 01:01:07;;;;;;;9.82;4.00;;;;;;;;;;5034966;28;20522;-67
2022/07/28 01:03:34;;;;;;;11.50;3.97;;;;;;;;;;5053496;28;20094;-67
2022/07/28 01:06:12;;;;;;;10.27;4.32;;;;;;;;;;5035984;28;20053;-67
2022/07/28 01:08:57;;;;;;;10.60;4.55;;;;;;;;;;5053023;28;20049;-67
2022/07/28 01:11:36;;;;;;;10.88;3.92;;;;;;;;;;5052732;28;20476;-67
2022/07/28 01:14:10;;;;;;;10.60;4.07;;;;;;;;;;5053525;28;20076;-67
2022/07/28 01:16:52;;;;;;;10.85;4.18;;;;;;;;;;5052463;28;20540;-67
2022/07/28 01:19:18;;;;;;;12.15;4.10;;;;;;;;;;5053075;28;20580;-67
2022/07/28 01:21:45;;;;;;;10.13;4.10;;;;;;;;;;5052645;28;20128;-67
2022/07/28 01:24:17;;;;;;;10.25;4.00;;;;;;;;;;5053732;28;20084;-67
2022/07/28 01:26:45;;;;;;;9.68;3.88;;;;;;;;;;5056620;28;20388;-67
2022/07/28 01:29:41;;;;;;;10.80;4.03;;;;;;;;;;5056119;28;20087;-67
2022/07/28 01:32:10;;;;;;;11.52;4.13;;;;;;;;;;4985182;28;20090;-67
2022/07/28 01:34:41;;;;;;;11.52;4.38;;;;;;;;;;5056676;28;20057;-67
2022/07/28 01:37:13;;;;;;;10.18;4.10;;;;;;;;;;5056654;28;20127;-67
2022/07/28 01:39:41;;;;;;;12.98;4.82;;;;;;;;;;5055949;28;20095;-67
2022/07/28 01:42:08;;;;;;;10.95;4.03;;;;;;;;;;5055879;28;20064;-67
2022/07/28 01:44:36;;;;;;;11.77;4.22;;;;;;;;;;5038369;28;20096;-67
2022/07/28 01:47:06;;;;;;;11.00;4.03;;;;;;;;;;5055898;28;20041;-67
2022/07/28 01:49:33;;;;;;;10.50;3.63;;;;;;;;;;5056397;28;20098;-67
2022/07/28 01:52:00;;;;;;;10.95;4.20;;;;;;;;;;5055729;28;20052;-68
2022/07/28 01:54:27;;;;;;;9.13;3.72;;;;;;;;;;5055387;28;20484;-67
2022/07/28 01:56:54;;;;;;;11.23;4.18;;;;;;;;;;5056212;28;20060;-67
2022/07/28 01:59:21;;;;;;;10.40;4.10;;;;;;;;;;5055204;28;20509;-67
2022/07/28 02:01:49;;;;;;;10.90;4.20;;;;;;;;;;5056171;28;20040;-67
2022/07/28 02:04:18;;;;;;;10.10;4.05;;;;;;;;;;5056363;28;20119;-67
2022/07/28 02:06:46;;;;;;;11.07;4.32;;;;;;;;;;5055615;28;20049;-67
2022/07/28 02:09:13;;;;;;;10.40;4.10;;;;;;;;;;5038000;28;20041;-67
2022/07/28 02:11:38;;;;;;;;;;;;;;;;;;5055955;28;20099;-67
2022/07/28 02:14:37;;;;;;;10.20;4.40;;;;;;;;;;5055498;28;19924;-67
2022/07/28 02:17:07;;;;;;;9.65;4.35;;;;;;;;;;5011938;28;20057;-67
2022/07/28 02:19:34;;;;;;;11.27;4.45;;;;;;;;;;5055502;28;20055;-67
2022/07/28 02:22:01;;;;;;;10.00;4.50;;;;;;;;;;5054893;28;20511;-67
2022/07/28 02:24:28;;;;;;;11.30;5.10;;;;;;;;;;5056090;28;20132;-67
2022/07/28 02:27:05;;;;;;;10.10;4.55;;;;;;;;;;5055164;28;20080;-67
2022/07/28 02:29:32;;;;;;;12.40;5.10;;;;;;;;;;5055369;28;20047;-67
2022/07/28 02:32:05;;;;;;;11.02;4.72;;;;;;;;;;5055089;28;20102;-67
2022/07/28 02:34:31;;;;;;;11.15;4.95;;;;;;;;;;5055746;28;20115;-67
2022/07/28 02:36:58;;;;;;;12.70;4.93;;;;;;;;;;5036313;28;20400;-67
2022/07/28 02:39:26;;;;;;;9.70;4.60;;;;;;;;;;5038007;28;20425;-67
2022/07/28 02:41:56;;;;;;;10.68;4.55;;;;;;;;;;5054766;28;20131;-67
2022/07/28 02:44:26;;;;;;;12.98;4.97;;;;;;;;;;5055560;28;20079;-67
2022/07/28 02:46:54;;;;;;;13.40;4.85;;;;;;;;;;5055603;28;20480;-67
2022/07/28 02:49:33;;;;;;;12.10;5.07;;;;;;;;;;5055314;28;20049;-67
2022/07/28 02:52:00;;;;;;;10.95;4.72;;;;;;;;;;5055050;28;20052;-67
2022/07/28 02:54:27;;;;;;;15.18;4.85;;;;;;;;;;5055265;28;20055;-67
2022/07/28 02:56:54;;;;;;;10.80;4.35;;;;;;;;;;5054976;28;20419;-67
2022/07/28 02:59:20;;;;;;;10.90;5.13;;;;;;;;;;5054678;28;20128;-67
2022/07/28 03:01:47;;;;;;;12.77;4.45;;;;;;;;;;5054504;28;20041;-67
2022/07/28 03:04:14;;;;;;;11.70;4.85;;;;;;;;;;5054502;28;20373;-67
2022/07/28 03:06:41;;;;;;;11.25;4.78;;;;;;;;;;5055016;28;20061;-67
2022/07/28 03:09:10;;;;;;;10.05;4.13;;;;;;;;;;5054396;28;20140;-67
2022/07/28 03:11:50;;;;;;;10.55;4.30;;;;;;;;;;5053239;28;20037;-67
2022/07/28 03:14:16;;;;;;;11.77;4.57;;;;;;;;;;5055137;28;20442;-67
2022/07/28 03:16:43;;;;;;;11.45;4.75;;;;;;;;;;5054071;28;20492;-67
2022/07/28 03:19:10;;;;;;;10.65;4.47;;;;;;;;;;5054090;28;20080;-67
2022/07/28 03:21:37;;;;;;;12.30;4.68;;;;;;;;;;5054448;28;20041;-67
2022/07/28 03:24:04;;;;;;;10.00;4.53;;;;;;;;;;5054696;28;20053;-67
2022/07/28 03:26:30;;;;;;;;;;;;;;;;;;5054975;28;20453;-67
2022/07/28 03:28:57;;;;;;;11.77;4.28;;;;;;;;;;5054832;28;19993;-67
2022/07/28 03:31:24;;;;;;;10.75;4.38;;;;;;;;;;5054263;28;20392;-67
2022/07/28 03:33:50;;;;;;;10.02;4.68;;;;;;;;;;5053990;28;20059;-67
2022/07/28 03:36:21;;;;;;;12.15;4.70;;;;;;;;;;5053960;28;20049;-67
2022/07/28 03:39:01;;;;;;;11.48;4.55;;;;;;;;;;5053902;28;20045;-67
2022/07/28 03:41:27;;;;;;;10.90;4.25;;;;;;;;;;5054477;28;20048;-67
2022/07/28 03:43:53;;;;;;;;;;;;;;;;;;5054290;28;20495;-68
2022/07/28 03:46:20;;;;;;;10.80;4.43;;;;;;;;;;5053687;28;19983;-67
2022/07/28 03:48:46;;;;;;;12.00;4.32;;;;;;;;;;5052817;28;20056;-68
2022/07/28 03:51:12;;;;;;;11.57;4.78;;;;;;;;;;5052989;28;20076;-67
2022/07/28 03:53:38;;;;;;;11.90;4.32;;;;;;;;;;5052757;28;20127;-67
2022/07/28 03:56:05;;;;;;;;;;;;;;;;;;5052743;28;20450;-67
2022/07/28 03:58:31;;;;;;;9.95;4.00;;;;;;;;;;5052022;28;20377;-67
2022/07/28 04:00:57;;;;;;;;;;;;;;;;;;5053082;28;20044;-67
2022/07/28 04:03:23;;;;;;;10.75;3.95;;;;;;;;;;5052198;28;19943;-68
2022/07/28 04:05:49;;;;;;;11.55;4.60;;;;;;;;;;5052795;28;20041;-67
2022/07/28 04:08:16;;;;;;;11.73;4.30;;;;;;;;;;5052554;28;20044;-68
2022/07/28 04:10:42;;;;;;;11.18;3.80;;;;;;;;;;5051782;28;20079;-67
2022/07/28 04:13:08;;;;;;;12.45;4.30;;;;;;;;;;5051742;28;20511;-68
2022/07/28 04:15:34;;;;;;;11.13;4.00;;;;;;;;;;5051737;28;20087;-67
2022/07/28 04:18:00;;;;;;;9.45;3.85;;;;;;;;;;5051764;28;20227;-67
2022/07/28 04:20:27;;;;;;;10.23;3.83;;;;;;;;;;5052150;28;20184;-67
2022/07/28 04:22:53;;;;;;;12.65;3.90;;;;;;;;;;5050601;28;20052;-67
2022/07/28 04:25:22;;;;;;;10.65;3.55;;;;;;;;;;5051545;28;20453;-67
2022/07/28 04:27:48;;;;;;;9.98;3.60;;;;;;;;;;5052290;28;20045;-67
2022/07/28 04:30:18;;;;;;;;;;;;;;;;;;5052247;28;20471;-67
2022/07/28 04:32:44;;;;;;;9.25;3.80;;;;;;;;;;5051492;28;20058;-67
2022/07/28 04:35:11;;;;;;;11.00;3.80;;;;;;;;;;5052088;28;20135;-67
2022/07/28 04:37:37;;;;;;;9.85;4.05;;;;;;;;;;5051577;28;20056;-67
2022/07/28 04:40:05;;;;;;;12.60;4.20;;;;;;;;;;5052230;28;20377;-67
2022/07/28 04:42:31;;;;;;;10.70;4.20;;;;;;;;;;5051655;28;20049;-67
2022/07/28 04:44:57;;;;;;;10.32;3.72;;;;;;;;;;5051883;28;20124;-67
2022/07/28 04:47:23;;;;;;;11.98;4.35;;;;;;;;;;5052160;28;20073;-67
2022/07/28 04:49:50;;;;;;;11.00;3.95;;;;;;;;;;5034095;28;20148;-67
2022/07/28 04:52:16;;;;;;;;;;;;;;;;;;5052609;28;20076;-68
2022/07/28 04:54:42;;;;;;;11.07;4.68;;;;;;;;;;5051403;28;20379;-67
2022/07/28 04:57:09;;;;;;;12.00;4.80;;;;;;;;;;5051517;28;20047;-67
2022/07/28 04:59:35;;;;;;;10.13;4.18;;;;;;;;;;5035564;28;20056;-67
2022/07/28 05:02:01;;;;;;;13.25;4.22;;;;;;;;;;5037551;28;20098;-67
2022/07/28 05:04:28;;;;;;;12.55;4.55;;;;;;;;;;5055162;28;20049;-67
2022/07/28 05:06:54;;;;;;;10.93;4.70;;;;;;;;;;5055138;28;20505;-67
2022/07/28 05:09:20;;;;;;;13.88;4.65;;;;;;;;;;5037266;28;20086;-67
2022/07/28 05:11:46;;;;;;;12.82;4.57;;;;;;;;;;5055808;28;20083;-67
2022/07/28 05:14:12;;;;;;;10.82;4.53;;;;;;;;;;5055159;28;20045;-67
2022/07/28 05:16:38;;;;;;;12.38;4.65;;;;;;;;;;5055054;28;20045;-67
2022/07/28 05:19:04;;;;;;;11.70;4.63;;;;;;;;;;5054372;28;20091;-67
2022/07/28 05:21:30;;;;;;;10.73;4.63;;;;;;;;;;5037729;28;20057;-67
2022/07/28 05:23:56;;;;;;;11.45;4.20;;;;;;;;;;5055195;28;20192;-67
2022/07/28 05:26:22;;;;;;;16.25;4.75;;;;;;;;;;5054788;28;20056;-67
2022/07/28 05:28:48;;;;;;;10.75;3.65;;;;;;;;;;5055085;28;20080;-67
2022/07/28 05:31:14;;;;;;;12.13;3.85;;;;;;;;;;5054913;28;20045;-67
2022/07/28 05:33:41;;;;;;;10.07;3.65;;;;;;;;;;5054866;28;20496;-67
2022/07/28 05:36:07;;;;;;;11.40;3.97;;;;;;;;;;5054495;28;20045;-67
2022/07/28 05:38:33;;;;;;;10.80;3.72;;;;;;;;;;5053465;28;20055;-67
2022/07/28 05:40:59;;;;;;;11.40;3.70;;;;;;;;;;5055224;28;20055;-67
2022/07/28 05:43:25;;;;;;;;;;;;;;;;;;5055116;28;20140;-67
2022/07/28 05:45:51;;;;;;;8.95;3.10;;;;;;;;;;5054931;28;19936;-67
2022/07/28 05:48:18;;;;;;;11.05;3.47;;;;;;;;;;5054713;28;20059;-67
2022/07/28 05:50:44;;;;;;;16.13;3.63;;;;;;;;;;5036817;28;20388;-68
2022/07/28 05:53:10;;;;;;;12.43;3.17;;;;;;;;;;5054020;28;20068;-67
2022/07/28 05:55:36;;;;;;;12.20;3.13;;;;;;;;;;5054278;28;20430;-68
2022/07/28 05:58:02;;;;;;;13.98;3.67;;;;;;;;;;5053923;28;20437;-67
2022/07/28 06:00:30;;;;;;;12.52;3.30;;;;;;;;;;5054150;28;20048;-67
2022/07/28 06:03:00;;;;;;;11.02;2.90;;;;;;;;;;5054515;28;20059;-66
2022/07/28 06:05:27;;;;;;;13.05;3.03;;;;;;;;;;5054134;28;20128;-67
2022/07/28 06:07:52;;;;;;;;;;;;;;;;;;5052996;28;20124;-66
2022/07/28 06:10:20;;;;;;;8.98;2.78;;;;;;;;;;5053733;28;20032;-66
2022/07/28 06:12:49;;;;;;;11.13;2.78;;;;;;;;;;5054288;28;20049;-66
2022/07/28 06:15:24;;;;;;;9.38;2.83;;;;;;;;;;5054079;28;20051;-66
2022/07/28 06:17:51;;;;;;;12.23;3.38;;;;;;;;;;5053527;28;20048;-67
2022/07/28 06:20:18;;;;;;;12.57;3.45;;;;;;;;;;5053658;28;20080;-67
2022/07/28 06:22:45;;;;;;;12.82;3.78;;;;;;;;;;5054341;28;20286;-67
2022/07/28 06:25:15;;;;;;;13.65;3.50;;;;;;;;;;5054448;28;20052;-67
2022/07/28 06:27:41;;;;;;;12.27;3.55;;;;;;;;;;5053769;28;20045;-68
2022/07/28 06:30:08;;;;;;;9.88;2.67;;;;;;;;;;5053633;28;20044;-69
2022/07/28 06:32:34;;;;;;;12.48;3.05;;;;;;;;;;5053663;28;20060;-68
2022/07/28 06:35:00;;;;;;;10.10;2.95;;;;;;;;;;5053724;28;20053;-68
2022/07/28 06:37:26;;;;;;;10.98;2.85;;;;;;;;;;5053426;28;20446;-68
2022/07/28 06:39:52;;;;;;;9.52;2.60;;;;;;;;;;5052906;28;20057;-67
2022/07/28 06:42:18;;;;;;;14.27;3.17;;;;;;;;;;5053247;28;20496;-67
2022/07/28 06:44:44;;;;;;;9.35;2.60;;;;;;;;;;5052726;28;20335;-67
2022/07/28 06:47:10;;;;;;;15.55;3.10;;;;;;;;;;5053840;28;20048;-66
2022/07/28 06:49:36;;;;;;;10.60;2.33;;;;;;;;;;5052768;28;20405;-67
2022/07/28 06:52:02;;;;;;;11.27;2.90;;;;;;;;;;5053323;28;20037;-67
2022/07/28 06:54:28;;;;;;;16.17;2.80;;;;;;;;;;5053225;28;20049;-67
2022/07/28 06:56:54;;;;;;;11.65;2.47;;;;;;;;;;5052849;28;20055;-67
2022/07/28 06:59:20;;;;;;;11.60;2.65;;;;;;;;;;5053128;28;20049;-67
2022/07/28 07:01:47;;;;;;;7.50;2.45;;;;;;;;;;5053245;28;20076;-67
2022/07/28 07:04:13;;;;;;;13.48;3.03;;;;;;;;;;5052748;28;20052;-68
2022/07/28 07:06:39;;;;;;;13.35;2.85;;;;;;;;;;5053217;28;20044;-68
2022/07/28 07:09:05;;;;;;;12.27;3.05;;;;;;;;;;5052685;28;20045;-68
2022/07/28 07:11:31;;;;;;;14.95;2.90;;;;;;;;;;5052685;28;20162;-68
2022/07/28 07:13:57;;;;;;;12.70;3.70;;;;;;;;;;5052654;28;20100;-68
2022/07/28 07:16:23;;;;;;;15.20;4.03;;;;;;;;;;5053001;28;20048;-67
2022/07/28 07:18:51;;;;;;;12.48;4.50;;;;;;;;;;5052629;28;20147;-68
2022/07/28 07:21:18;;;;;;;12.25;4.18;;;;;;;;;;5051887;28;20045;-68
2022/07/28 07:23:44;;;;;;;12.30;4.32;;;;;;;;;;5052423;28;20084;-68
2022/07/28 07:26:10;;;;;;;13.77;4.53;;;;;;;;;;5052189;28;20049;-68
2022/07/28 07:28:37;;;;;;;14.95;4.70;;;;;;;;;;5052802;28;20416;-68
2022/07/28 07:31:03;;;;;;;14.88;4.38;;;;;;;;;;5051161;28;20045;-68
2022/07/28 07:33:29;;;;;;;12.60;3.92;;;;;;;;;;5034324;28;20061;-68
2022/07/28 07:35:55;;;;;;;11.25;3.78;;;;;;;;;;5051893;28;20417;-68
2022/07/28 07:38:21;;;;;;;10.63;3.63;;;;;;;;;;5052361;28;20460;-68
2022/07/28 07:40:49;;;;;;;11.65;4.05;;;;;;;;;;5051851;28;20467;-68
2022/07/28 07:43:15;;;;;;;10.38;3.55;;;;;;;;;;5052080;28;20087;-68
2022/07/28 07:45:42;;;;;;;11.45;3.88;;;;;;;;;;5052327;28;20041;-67
2022/07/28 07:48:08;;;;;;;14.68;4.28;;;;;;;;;;5051599;28;20048;-67
2022/07/28 07:50:34;;;;;;;12.07;4.22;;;;;;;;;;5052058;28;20107;-66
2022/07/28 07:53:00;;;;;;;13.90;3.95;;;;;;;;;;5052184;28;20052;-66
2022/07/28 07:55:26;;;;;;;10.07;3.42;;;;;;;;;;5052645;28;20057;-70
2022/07/28 07:57:52;;;;;;;9.57;3.40;;;;;;;;;;5052079;28;20047;-66
2022/07/28 08:00:20;;;;;;;10.82;3.63;;;;;;;;;;5052434;28;20044;-65
2022/07/28 08:02:46;;;;;;;12.90;3.33;;;;;;;;;;5052112;28;20146;-65
2022/07/28 08:05:12;;;;;;;8.20;2.50;;;;;;;;;;5051877;28;20098;-67
2022/07/28 08:07:38;;;;;;;;;;;;;;;;;;5052318;28;20052;-65
2022/07/28 08:10:05;;;;;;;8.32;2.90;;;;;;;;;;5051947;28;20308;-66
2022/07/28 08:12:31;;;;;;;11.35;3.50;;;;;;;;;;5051990;28;20431;-66
2022/07/28 08:14:57;;;;;;;10.05;2.72;;;;;;;;;;5052241;28;20044;-65
2022/07/28 08:17:23;;;;;;;10.68;2.90;;;;;;;;;;5052032;28;20055;-65
2022/07/28 08:19:49;;;;;;;9.63;2.80;;;;;;;;;;5051707;28;20048;-66
2022/07/28 08:22:16;;;;;;;;;;;;;;;;;;5052083;28;20045;-66
2022/07/28 08:24:42;;;;;;;10.30;2.70;;;;;;;;;;5052018;28;19939;-66
2022/07/28 08:27:08;;;;;;;9.57;2.70;;;;;;;;;;5051285;28;20040;-66
2022/07/28 08:29:34;;;;;;;;;;;;;;;;;;5051676;28;20053;-66
2022/07/28 08:32:02;;;;;;;10.38;2.55;;;;;;;;;;5051446;28;19994;-67
2022/07/28 08:34:29;;;;;;;19.92;3.22;;;;;;;;;;5055449;28;20057;-66
2022/07/28 08:36:55;;;;;;;;;;;;;;;;;;5056066;28;20045;-66
2022/07/28 08:39:22;;;;;;;9.65;2.30;;;;;;;;;;5055327;28;20400;-66
2022/07/28 08:41:51;;;;;;;9.30;2.67;;;;;;;;;;5056167;28;20055;-66
2022/07/28 08:44:40;;;;;;;10.75;2.40;;;;;;;;;;5055253;28;20045;-66
2022/07/28 08:47:08;;;;;;;8.10;2.25;;;;;;;;;;5055875;28;20041;-65
2022/07/28 08:49:35;;;;;;;6.80;2.28;;;;;;;;;;5055603;28;20139;-67
2022/07/28 08:52:02;;;;;;;9.40;2.30;;;;;;;;;;5056267;28;20041;-66
2022/07/28 08:54:28;;;;;;;8.48;2.42;;;;;;;;;;5055935;28;20044;-66
2022/07/28 08:56:55;;;;;;;10.43;2.20;;;;;;;;;;5055370;28;20045;-66
2022/07/28 08:59:22;;;;;;;8.45;2.28;;;;;;;;;;5055561;28;20136;-66
2022/07/28 09:01:48;;;;;;;9.90;2.33;;;;;;;;;;5055233;28;20088;-65
2022/07/28 09:04:14;;;;;;;;;;;;;;;;;;5038622;28;20427;-65
2022/07/28 09:06:41;;;;;;;10.45;2.40;;;;;;;;;;5055095;28;19921;-65
2022/07/28 09:09:08;;;;;;;10.05;2.42;;;;;;;;;;5055771;28;20094;-67
2022/07/28 09:11:35;;;;;;;8.00;2.22;;;;;;;;;;5054714;28;20053;-66
2022/07/28 09:14:01;;;;;;;8.80;2.20;;;;;;;;;;5054878;28;20128;-65
2022/07/28 09:16:27;;;;;;;7.28;2.20;;;;;;;;;;5054870;28;20121;-65
2022/07/28 09:18:53;;;;;;;8.32;2.00;;;;;;;;;;5054798;28;20045;-78
2022/07/28 09:21:20;;;;;;;8.73;2.20;;;;;;;;;;5055259;28;20037;-74
2022/07/28 09:23:47;;;;;;;6.93;2.10;;;;;;;;;;5055368;28;20178;-75
2022/07/28 09:26:14;;;;;;;8.25;2.17;;;;;;;;;;5054487;28;20484;-71
2022/07/28 09:28:47;;;;;;;12.75;2.70;;;;;;;;;;5054440;28;20119;-72
2022/07/28 09:31:13;;;;;;;9.93;2.53;;;;;;;;;;5054432;28;20041;-73
2022/07/28 09:33:39;;;;;;;9.55;2.33;;;;;;;;;;5054406;28;20052;-71
2022/07/28 09:36:12;;;;;;;6.55;2.28;;;;;;;;;;5054320;28;20377;-71
2022/07/28 09:38:41;;;;;;;6.43;2.28;;;;;;;;;;5054543;28;20076;-72
2022/07/28 09:41:07;;;;;;;7.43;2.40;;;;;;;;;;5054630;28;20420;-75
2022/07/28 09:43:38;;;;;;;9.45;2.30;;;;;;;;;;5054535;28;20099;-72
2022/07/28 09:46:11;;;;;;;7.07;2.35;;;;;;;;;;5054348;28;20045;-72
2022/07/28 09:48:49;;;;;;;9.40;2.50;;;;;;;;;;5055049;28;20144;-74
2022/07/28 09:51:18;;;;;;;8.70;2.10;;;;;;;;;;5054984;28;20042;-74
2022/07/28 09:53:45;;;;;;;8.80;2.67;;;;;;;;;;5054352;28;20041;-76
2022/07/28 09:56:11;;;;;;;;;;;;;;;;;;5053378;28;20053;-68
2022/07/28 09:58:38;;;;;;;6.65;2.30;;;;;;;;;;5036809;28;19928;-72
2022/07/28 10:01:12;;;;;;;10.00;2.33;;;;;;;;;;5036303;28;20178;-72
2022/07/28 10:03:42;;;;;;;8.57;2.30;;;;;;;;;;5054000;28;20132;-72
2022/07/28 10:06:13;;;;;;;6.18;1.92;;;;;;;;;;5036526;28;20345;-72
2022/07/28 10:08:46;;;;;;;7.55;1.90;;;;;;;;;;5054700;28;20059;-68
2022/07/28 10:11:13;;;;;;;10.05;2.20;;;;;;;;;;5053623;28;20037;-69
2022/07/28 10:13:58;;;;;;;7.18;1.90;;;;;;;;;;5053693;28;20048;-71
2022/07/28 10:16:25;;;;;;;6.10;2.05;;;;;;;;;;5053501;28;20103;-67
2022/07/28 10:18:51;;;;;;;5.22;1.90;;;;;;;;;;5054096;28;20064;-67
2022/07/28 10:21:19;;;;;;;5.85;1.90;;;;;;;;;;5036226;28;20040;-67
2022/07/28 10:23:53;;;;;;;6.38;1.70;;;;;;;;;;5054106;28;20056;-67
2022/07/28 10:26:30;;;;;;;6.65;1.75;;;;;;;;;;5053899;28;20041;-67
2022/07/28 10:28:57;;;;;;;6.85;1.92;;;;;;;;;;5053909;28;20130;-66
2022/07/28 10:31:45;;;;;;;8.13;1.83;;;;;;;;;;5053875;28;20120;-71
2022/07/28 10:34:16;;;;;;;7.53;1.85;;;;;;;;;;5053518;28;20079;-73
2022/07/28 10:36:43;;;;;;;7.30;1.90;;;;;;;;;;5054087;28;20099;-69
2022/07/28 10:39:12;;;;;;;6.15;1.90;;;;;;;;;;5053601;28;20049;-77
2022/07/28 10:41:39;;;;;;;6.53;1.70;;;;;;;;;;5053289;28;20432;-67
2022/07/28 10:44:06;;;;;;;6.55;1.80;;;;;;;;;;5053496;28;20045;-66
2022/07/28 10:46:33;;;;;;;4.85;1.90;;;;;;;;;;5052180;28;20123;-65
2022/07/28 10:49:00;;;;;;;7.75;2.03;;;;;;;;;;5053623;28;20080;-66
2022/07/28 10:51:27;;;;;;;4.90;1.80;;;;;;;;;;5053441;28;20045;-67
2022/07/28 10:54:08;;;;;;;5.22;1.80;;;;;;;;;;5053359;28;20052;-66
2022/07/28 10:56:40;;;;;;;6.55;2.13;;;;;;;;;;5052096;28;20053;-67
2022/07/28 10:59:32;;;;;;;7.70;2.10;;;;;;;;;;5052020;28;20041;-66
2022/07/28 11:01:58;;;;;;;5.38;1.73;;;;;;;;;;5053276;28;20461;-67
2022/07/28 11:04:43;;;;;;;5.97;1.92;;;;;;;;;;5053639;28;20490;-66
2022/07/28 11:07:10;;;;;;;7.78;1.90;;;;;;;;;;5053308;28;20049;-67
2022/07/28 11:09:36;;;;;;;5.72;1.80;;;;;;;;;;5053058;28;20049;-66
2022/07/28 11:12:03;;;;;;;7.00;2.00;;;;;;;;;;5053087;28;20041;-67
2022/07/28 11:14:32;;;;;;;8.45;1.83;;;;;;;;;;5052810;28;20132;-66
2022/07/28 11:17:04;;;;;;;5.80;1.80;;;;;;;;;;5052876;28;20056;-66
2022/07/28 11:19:30;;;;;;;8.20;2.00;;;;;;;;;;5052663;28;20088;-66
2022/07/28 11:22:18;;;;;;;5.97;1.80;;;;;;;;;;5052762;28;20477;-66
2022/07/28 11:24:44;;;;;;;;;;;;;;;;;;5052870;28;20608;-67
2022/07/28 11:27:10;;;;;;;4.53;1.70;;;;;;;;;;5052488;28;20023;-67
2022/07/28 11:29:46;;;;;;;5.82;1.83;;;;;;;;;;5051828;28;20049;-67
2022/07/28 11:32:12;;;;;;;6.68;2.03;;;;;;;;;;5052931;28;20052;-66
2022/07/28 11:34:38;;;;;;;;;;;;;;;;;;5052428;28;20056;-67
2022/07/28 11:37:05;;;;;;;6.15;1.80;;;;;;;;;;5052421;28;19983;-67
2022/07/28 11:39:31;;;;;;;7.13;2.15;;;;;;;;;;5052984;28;20068;-67
2022/07/28 11:41:57;;;;;;;8.73;2.00;;;;;;;;;;5034597;28;20132;-67
2022/07/28 11:44:24;;;;;;;;;;;;;;;;;;5053074;28;20373;-70
2022/07/28 11:46:50;;;;;;;6.22;1.67;;;;;;;;;;5052314;28;19942;-67
2022/07/28 11:49:16;;;;;;;;;;;;;;;;;;5051452;28;20049;-68
2022/07/28 11:52:02;;;;;;;9.97;1.80;;;;;;;;;;5034637;28;19925;-68
2022/07/28 11:54:29;;;;;;;8.48;2.00;;;;;;;;;;5052752;28;20044;-67
2022/07/28 11:56:58;;;;;;;6.50;1.90;;;;;;;;;;5035099;28;20485;-66
2022/07/28 11:59:24;;;;;;;5.40;1.98;;;;;;;;;;5052738;28;20045;-68
2022/07/28 12:01:50;;;;;;;;;;;;;;;;;;5052426;28;20049;-67
2022/07/28 12:04:17;;;;;;;10.70;2.13;;;;;;;;;;5034829;28;19975;-67
2022/07/28 12:06:45;;;;;;;6.90;2.10;;;;;;;;;;5052582;28;20049;-68
2022/07/28 12:09:14;;;;;;;5.57;1.92;;;;;;;;;;5051794;28;20139;-67
2022/07/28 12:11:40;;;;;;;6.15;1.90;;;;;;;;;;5051920;28;20124;-67
2022/07/28 12:14:08;;;;;;;6.65;2.00;;;;;;;;;;5052096;28;20084;-68
2022/07/28 12:16:35;;;;;;;6.45;1.98;;;;;;;;;;5051970;28;20053;-67
2022/07/28 12:19:01;;;;;;;6.82;2.10;;;;;;;;;;5051956;28;20132;-67
2022/07/28 12:21:39;;;;;;;6.25;1.90;;;;;;;;;;5051738;28;20047;-67
2022/07/28 12:24:06;;;;;;;7.72;1.83;;;;;;;;;;5051987;28;20481;-68
2022/07/28 12:26:33;;;;;;;7.22;1.80;;;;;;;;;;5051608;28;20040;-68
2022/07/28 12:29:00;;;;;;;6.65;1.85;;;;;;;;;;5051509;28;20092;-67
2022/07/28 12:31:29;;;;;;;4.72;1.70;;;;;;;;;;5052249;28;20048;-66
2022/07/28 12:34:05;;;;;;;7.45;2.05;;;;;;;;;;5052155;28;20060;-66
2022/07/28 12:36:31;;;;;;;;;;;;;;;;;;5052238;28;20099;-69
2022/07/28 12:38:59;;;;;;;6.25;1.80;;;;;;;;;;5052383;28;20384;-68
2022/07/28 12:41:31;;;;;;;6.28;1.80;;;;;;;;;;5051803;28;20041;-69
2022/07/28 12:43:57;;;;;;;6.43;1.95;;;;;;;;;;5052194;28;20045;-69
2022/07/28 12:46:25;;;;;;;4.80;1.80;;;;;;;;;;5051967;28;20044;-68
2022/07/28 12:48:51;;;;;;;6.68;1.67;;;;;;;;;;5052151;28;20045;-69
2022/07/28 12:51:34;;;;;;;9.80;2.60;;;;;;;;;;5052187;28;20048;-69
2022/07/28 12:54:04;;;;;;;5.55;1.80;;;;;;;;;;5051614;28;20041;-70
2022/07/28 12:56:30;;;;;;;6.55;2.05;;;;;;;;;;5051721;28;20044;-68
2022/07/28 12:58:56;;;;;;;;;;;;;;;;;;5052309;28;20493;-68
2022/07/28 13:01:22;;;;;;;6.40;1.98;;;;;;;;;;5051296;28;19921;-66
2022/07/28 13:03:48;;;;;;;6.18;1.80;;;;;;;;;;5051742;28;20059;-66
2022/07/28 13:06:14;;;;;;;6.53;1.90;;;;;;;;;;5034575;28;20055;-66
2022/07/28 13:08:45;;;;;;;7.78;2.00;;;;;;;;;;5051715;28;20094;-67
2022/07/28 13:11:12;;;;;;;4.78;1.80;;;;;;;;;;5051598;28;20040;-68
2022/07/28 13:13:45;;;;;;;6.45;2.15;;;;;;;;;;5051374;28;20489;-69
2022/07/28 13:16:11;;;;;;;9.10;1.80;;;;;;;;;;5052221;28;20053;-68
2022/07/28 13:18:38;;;;;;;5.82;1.70;;;;;;;;;;5051218;28;20052;-67
2022/07/28 13:21:04;;;;;;;6.63;1.80;;;;;;;;;;5052704;28;20040;-66
2022/07/28 13:23:30;;;;;;;8.10;1.92;;;;;;;;;;5055102;28;20088;-66
2022/07/28 13:25:56;;;;;;;5.35;1.92;;;;;;;;;;5055000;28;20052;-66
2022/07/28 13:28:26;;;;;;;6.18;2.00;;;;;;;;;;5037419;28;20094;-67
2022/07/28 13:30:52;;;;;;;4.85;1.73;;;;;;;;;;5054589;28;20502;-66
2022/07/28 13:33:19;;;;;;;7.28;2.10;;;;;;;;;;5054705;28;20103;-67
2022/07/28 13:35:46;;;;;;;6.90;1.77;;;;;;;;;;5054576;28;20453;-66
2022/07/28 13:38:12;;;;;;;6.70;1.85;;;;;;;;;;5054686;28;20469;-65
2022/07/28 13:40:38;;;;;;;7.90;2.20;;;;;;;;;;5055192;28;20044;-66
2022/07/28 13:43:06;;;;;;;;;;;;;;;;;;5053992;28;20101;-65
2022/07/28 13:45:33;;;;;;;5.35;2.05;;;;;;;;;;5054647;28;19970;-66
2022/07/28 13:47:59;;;;;;;10.50;1.80;;;;;;;;;;5054877;28;20057;-64
2022/07/28 13:50:26;;;;;;;7.25;2.10;;;;;;;;;;5054899;28;20133;-69
2022/07/28 13:52:52;;;;;;;;;;;;;;;;;;5037091;28;20400;-70
2022/07/28 13:55:18;;;;;;;9.00;2.60;;;;;;;;;;5055841;28;19920;-72
2022/07/28 13:57:44;;;;;;;6.95;2.10;;;;;;;;;;5054708;28;20053;-72
2022/07/28 14:00:11;;;;;;;5.82;1.80;;;;;;;;;;5054266;28;20140;-72
2022/07/28 14:02:37;;;;;;;6.57;2.00;;;;;;;;;;5054404;28;20459;-73
2022/07/28 14:05:03;;;;;;;6.15;1.88;;;;;;;;;;5054855;28;20152;-72
2022/07/28 14:07:29;;;;;;;11.57;2.30;;;;;;;;;;5054171;28;20045;-65
2022/07/28 14:09:55;;;;;;;13.93;2.25;;;;;;;;;;5036667;28;20056;-70
2022/07/28 14:12:21;;;;;;;7.15;2.08;;;;;;;;;;5053759;28;20045;-73
2022/07/28 14:14:48;;;;;;;8.18;2.33;;;;;;;;;;5054023;28;20110;-82
2022/07/28 14:17:13;;;;;;;;;;;;;;;;;;5053820;28;20376;-72
2022/07/28 14:19:40;;;;;;;11.50;2.10;;;;;;;;;;5054156;28;19927;-70
2022/07/28 14:22:06;;;;;;;;;;;;;;;;;;5054399;28;20049;-65
2022/07/28 14:24:32;;;;;;;8.23;1.98;;;;;;;;;;5053766;28;20272;-65
2022/07/28 14:26:58;;;;;;;;;;;;;;;;;;5036367;28;20041;-65
2022/07/28 14:29:24;;;;;;;6.88;1.80;;;;;;;;;;5053555;28;19924;-70
2022/07/28 14:31:52;;;;;;;13.07;2.55;;;;;;;;;;5053485;28;20124;-76
2022/07/28 14:34:18;;;;;;;7.95;1.88;;;;;;;;;;5053787;28;20063;-72
2022/07/28 14:36:44;;;;;;;8.20;1.90;;;;;;;;;;5054073;28;20049;-73
2022/07/28 14:39:10;;;;;;;7.15;1.90;;;;;;;;;;5054290;28;20091;-66
2022/07/28 14:41:37;;;;;;;5.97;1.92;;;;;;;;;;5053499;28;20037;-66
2022/07/28 14:44:03;;;;;;;4.80;1.73;;;;;;;;;;5054062;28;20045;-66
2022/07/28 14:46:29;;;;;;;;;;;;;;;;;;5053750;28;20049;-66
2022/07/28 14:48:55;;;;;;;6.72;2.00;;;;;;;;;;5053551;28;20360;-67